sensor_id;sensor_type;location;lat;lon;timestamp;pressure;altitude;pressure_sealevel;temperature;humidity
45864;BME280;31579;52.354;16.974;2022-07-23T00:00:37;103.7;;;-146.1;100.0
45864;BME280;31579;52.354;16.974;2022-07-23T00:01:41;97.4;;;-146.1;100.0
45864;BME280;31579;52.354;16.974;2022-07-23T00:02:46;88.1;;;-146.1;100.0
45864;BME280;31579;52.354;16.974;2022-07-23T00:03:50;79.4;;;-146.1;100.0
45864;BME280;31579;52.354;16.974;2022-07-23T00:04:54;73.0;;;-146.1;100.0
45864;BME280;31579;52.354;16.974;2022-07-23T00:05:58;65.3;;;-146.1;100.0
45864;BME280;31579;52.354;16.974;2022-07-23T00:07:00;196.8;;;-146.1;100.0
45864;BME280;31579;52.354;16.974;2022-07-23T00:08:06;51.0;;;-146.1;100.0
45864;BME280;31579;52.354;16.974;2022-07-23T00:09:09;53.0;;;-146.1;100.0
45864;BME280;31579;52.354;16.974;2022-07-23T00:10:14;55.4;;;-146.1;100.0
45864;BME280;31579;52.354;16.974;2022-07-23T00:11:18;57.5;;;-146.1;100.0
45864;BME280;31579;52.354;16.974;2022-07-23T00:12:22;55.8;;;-146.1;100.0
45864;BME280;31579;52.354;16.974;2022-07-23T00:13:26;49.5;;;-146.1;100.0
45864;BME280;31579;52.354;16.974;2022-07-23T00:14:30;47.3;;;-146.1;100.0
45864;BME280;31579;52.354;16.974;2022-07-23T00:15:34;45.8;;;-146.1;100.0
45864;BME280;31579;52.354;16.974;2022-07-23T00:16:38;42.2;;;-146.1;100.0
45864;BME280;31579;52.354;16.974;2022-07-23T00:17:42;45.7;;;-146.1;100.0
45864;BME280;31579;52.354;16.974;2022-07-23T00:18:46;46.8;;;-146.1;100.0
45864;BME280;31579;52.354;16.974;2022-07-23T00:19:50;52.7;;;-146.1;100.0
45864;BME280;31579;52.354;16.974;2022-07-23T00:20:54;70.9;;;-146.1;100.0
45864;BME280;31579;52.354;16.974;2022-07-23T00:21:58;82.4;;;-146.1;100.0
45864;BME280;31579;52.354;16.974;2022-07-23T00:23:01;224.9;;;-146.1;100.0
45864;BME280;31579;52.354;16.974;2022-07-23T00:24:03;150.6;;;-146.1;100.0
45864;BME280;31579;52.354;16.974;2022-07-23T00:25:07;62.7;;;-146.1;100.0
45864;BME280;31579;52.354;16.974;2022-07-23T00:26:11;57.1;;;-146.1;100.0
45864;BME280;31579;52.354;16.974;2022-07-23T00:27:15;53.4;;;-146.1;100.0
45864;BME280;31579;52.354;16.974;2022-07-23T00:28:19;55.3;;;-146.1;100.0
45864;BME280;31579;52.354;16.974;2022-07-23T00:29:23;67.9;;;-146.1;100.0
45864;BME280;31579;52.354;16.974;2022-07-23T00:30:28;75.0;;;-146.1;100.0
45864;BME280;31579;52.354;16.974;2022-07-23T00:31:32;75.8;;;-146.1;100.0
45864;BME280;31579;52.354;16.974;2022-07-23T00:33:40;102.0;;;-146.1;100.0
45864;BME280;31579;52.354;16.974;2022-07-23T00:34:44;105.4;;;-146.1;100.0
45864;BME280;31579;52.354;16.974;2022-07-23T00:35:48;101.4;;;-146.1;100.0
45864;BME280;31579;52.354;16.974;2022-07-23T00:36:52;92.5;;;-146.1;100.0
45864;BME280;31579;52.354;16.974;2022-07-23T00:37:57;86.0;;;-146.1;100.0
45864;BME280;31579;52.354;16.974;2022-07-23T00:39:08;8.7;;;-146.1;100.0
45864;BME280;31579;52.354;16.974;2022-07-23T00:40:12;66.0;;;-146.1;100.0
45864;BME280;31579;52.354;16.974;2022-07-23T00:41:17;66.1;;;-146.1;100.0
45864;BME280;31579;52.354;16.974;2022-07-23T00:42:21;65.1;;;-146.1;100.0
45864;BME280;31579;52.354;16.974;2022-07-23T00:43:25;63.0;;;-146.1;100.0
45864;BME280;31579;52.354;16.974;2022-07-23T00:44:29;65.2;;;-146.1;100.0
45864;BME280;31579;52.354;16.974;2022-07-23T00:45:34;64.9;;;-146.1;100.0
45864;BME280;31579;52.354;16.974;2022-07-23T00:46:44;57.1;;;-146.1;100.0
45864;BME280;31579;52.354;16.974;2022-07-23T00:47:42;53.7;;;-146.1;100.0
45864;BME280;31579;52.354;16.974;2022-07-23T00:48:47;64.3;;;-146.1;100.0
45864;BME280;31579;52.354;16.974;2022-07-23T00:49:50;75.7;;;-146.1;100.0
45864;BME280;31579;52.354;16.974;2022-07-23T00:50:55;89.4;;;-146.1;100.0
45864;BME280;31579;52.354;16.974;2022-07-23T00:52:01;105.1;;;-146.1;100.0
45864;BME280;31579;52.354;16.974;2022-07-23T00:53:04;133.2;;;-146.1;100.0
45864;BME280;31579;52.354;16.974;2022-07-23T00:54:07;145.6;;;-146.1;100.0
45864;BME280;31579;52.354;16.974;2022-07-23T00:55:12;156.5;;;-146.1;100.0
45864;BME280;31579;52.354;16.974;2022-07-23T00:56:15;157.3;;;-146.1;100.0
45864;BME280;31579;52.354;16.974;2022-07-23T00:57:19;162.7;;;-146.1;100.0
45864;BME280;31579;52.354;16.974;2022-07-23T00:58:23;157.7;;;-146.1;100.0
45864;BME280;31579;52.354;16.974;2022-07-23T00:59:27;152.7;;;-146.1;100.0
45864;BME280;31579;52.354;16.974;2022-07-23T01:00:31;148.9;;;-146.1;100.0
45864;BME280;31579;52.354;16.974;2022-07-23T01:01:35;142.9;;;-146.1;100.0
45864;BME280;31579;52.354;16.974;2022-07-23T01:02:39;141.2;;;-146.1;100.0
45864;BME280;31579;52.354;16.974;2022-07-23T01:03:43;143.4;;;-146.1;100.0
45864;BME280;31579;52.354;16.974;2022-07-23T01:04:47;145.1;;;-146.1;100.0
45864;BME280;31579;52.354;16.974;2022-07-23T01:05:51;141.3;;;-146.1;100.0
45864;BME280;31579;52.354;16.974;2022-07-23T01:06:55;137.2;;;-146.1;100.0
45864;BME280;31579;52.354;16.974;2022-07-23T01:07:59;138.9;;;-146.1;100.0
45864;BME280;31579;52.354;16.974;2022-07-23T01:09:05;132.5;;;-146.1;100.0
45864;BME280;31579;52.354;16.974;2022-07-23T01:10:07;130.2;;;-146.1;100.0
45864;BME280;31579;52.354;16.974;2022-07-23T01:11:11;135.2;;;-146.1;100.0
45864;BME280;31579;52.354;16.974;2022-07-23T01:12:15;146.8;;;-146.1;100.0
45864;BME280;31579;52.354;16.974;2022-07-23T01:13:19;156.8;;;-146.1;100.0
45864;BME280;31579;52.354;16.974;2022-07-23T01:14:23;176.4;;;-146.1;100.0
45864;BME280;31579;52.354;16.974;2022-07-23T01:15:28;187.1;;;-146.1;100.0
45864;BME280;31579;52.354;16.974;2022-07-23T01:16:31;180.8;;;-146.1;100.0
45864;BME280;31579;52.354;16.974;2022-07-23T01:17:35;174.1;;;-146.1;100.0
45864;BME280;31579;52.354;16.974;2022-07-23T01:18:39;172.8;;;-146.1;100.0
45864;BME280;31579;52.354;16.974;2022-07-23T01:19:44;175.2;;;-146.1;100.0
45864;BME280;31579;52.354;16.974;2022-07-23T01:20:48;181.3;;;-146.1;100.0
45864;BME280;31579;52.354;16.974;2022-07-23T01:21:53;207.1;;;-146.1;100.0
45864;BME280;31579;52.354;16.974;2022-07-23T01:22:56;210.6;;;-146.1;100.0
45864;BME280;31579;52.354;16.974;2022-07-23T01:24:01;207.8;;;-146.1;100.0
45864;BME280;31579;52.354;16.974;2022-07-23T01:25:03;296.9;;;-146.1;100.0
45864;BME280;31579;52.354;16.974;2022-07-23T01:26:04;288.3;;;-146.1;100.0
45864;BME280;31579;52.354;16.974;2022-07-23T01:27:08;182.8;;;-146.1;100.0
45864;BME280;31579;52.354;16.974;2022-07-23T01:28:12;176.5;;;-146.1;100.0
45864;BME280;31579;52.354;16.974;2022-07-23T01:29:16;171.4;;;-146.1;100.0
45864;BME280;31579;52.354;16.974;2022-07-23T01:30:20;163.5;;;-146.1;100.0
45864;BME280;31579;52.354;16.974;2022-07-23T01:31:24;156.5;;;-146.1;100.0
45864;BME280;31579;52.354;16.974;2022-07-23T01:32:28;154.9;;;-146.1;100.0
45864;BME280;31579;52.354;16.974;2022-07-23T01:33:32;161.4;;;-146.1;100.0
45864;BME280;31579;52.354;16.974;2022-07-23T01:34:36;170.1;;;-146.1;100.0
45864;BME280;31579;52.354;16.974;2022-07-23T01:35:40;175.3;;;-146.1;100.0
45864;BME280;31579;52.354;16.974;2022-07-23T01:36:44;174.8;;;-146.1;100.0
45864;BME280;31579;52.354;16.974;2022-07-23T01:37:48;180.0;;;-146.1;100.0
45864;BME280;31579;52.354;16.974;2022-07-23T01:38:52;188.8;;;-146.1;100.0
45864;BME280;31579;52.354;16.974;2022-07-23T01:39:56;202.9;;;-146.1;100.0
45864;BME280;31579;52.354;16.974;2022-07-23T01:41:00;206.7;;;-146.1;100.0
45864;BME280;31579;52.354;16.974;2022-07-23T01:42:02;299.2;;;-146.1;100.0
45864;BME280;31579;52.354;16.974;2022-07-23T01:43:13;151.0;;;-146.1;100.0
45864;BME280;31579;52.354;16.974;2022-07-23T01:44:17;213.1;;;-146.1;100.0
45864;BME280;31579;52.354;16.974;2022-07-23T01:45:22;223.3;;;-146.1;100.0
45864;BME280;31579;52.354;16.974;2022-07-23T01:46:24;301.3;;;-146.1;100.0
45864;BME280;31579;52.354;16.974;2022-07-23T01:47:29;219.1;;;-146.1;100.0
45864;BME280;31579;52.354;16.974;2022-07-23T01:48:34;210.8;;;-146.1;100.0
45864;BME280;31579;52.354;16.974;2022-07-23T01:49:37;210.1;;;-146.1;100.0
45864;BME280;31579;52.354;16.974;2022-07-23T01:50:42;216.0;;;-146.1;100.0
45864;BME280;31579;52.354;16.974;2022-07-23T01:51:46;215.3;;;-146.1;100.0
45864;BME280;31579;52.354;16.974;2022-07-23T01:52:50;215.9;;;-146.1;100.0
45864;BME280;31579;52.354;16.974;2022-07-23T01:53:54;229.8;;;-146.1;100.0
45864;BME280;31579;52.354;16.974;2022-07-23T01:54:58;252.3;;;-146.1;100.0
45864;BME280;31579;52.354;16.974;2022-07-23T01:56:04;250.1;;;-146.1;100.0
45864;BME280;31579;52.354;16.974;2022-07-23T01:57:07;288.8;;;-146.1;100.0
45864;BME280;31579;52.354;16.974;2022-07-23T01:58:11;247.2;;;-146.1;100.0
45864;BME280;31579;52.354;16.974;2022-07-23T01:59:15;239.1;;;-146.1;100.0
45864;BME280;31579;52.354;16.974;2022-07-23T02:00:19;253.9;;;-146.1;100.0
45864;BME280;31579;52.354;16.974;2022-07-23T02:01:23;274.6;;;-146.1;100.0
45864;BME280;31579;52.354;16.974;2022-07-23T02:02:27;277.1;;;-146.1;100.0
45864;BME280;31579;52.354;16.974;2022-07-23T02:03:46;230.4;;;-146.1;100.0
45864;BME280;31579;52.354;16.974;2022-07-23T02:04:50;263.2;;;-146.1;100.0
45864;BME280;31579;52.354;16.974;2022-07-23T02:05:54;258.0;;;-146.1;100.0
45864;BME280;31579;52.354;16.974;2022-07-23T02:06:58;248.7;;;-146.1;100.0
45864;BME280;31579;52.354;16.974;2022-07-23T02:08:03;252.7;;;-146.1;100.0
45864;BME280;31579;52.354;16.974;2022-07-23T02:09:07;262.3;;;-146.1;100.0
45864;BME280;31579;52.354;16.974;2022-07-23T02:10:11;275.5;;;-146.1;100.0
45864;BME280;31579;52.354;16.974;2022-07-23T02:11:15;278.6;;;-146.1;100.0
45864;BME280;31579;52.354;16.974;2022-07-23T02:12:19;280.5;;;-146.1;100.0
45864;BME280;31579;52.354;16.974;2022-07-23T02:13:23;280.1;;;-146.1;100.0
45864;BME280;31579;52.354;16.974;2022-07-23T02:14:27;280.5;;;-146.1;100.0
45864;BME280;31579;52.354;16.974;2022-07-23T02:15:31;280.7;;;-146.1;100.0
45864;BME280;31579;52.354;16.974;2022-07-23T02:16:35;276.0;;;-146.1;100.0
45864;BME280;31579;52.354;16.974;2022-07-23T02:17:39;275.6;;;-146.1;100.0
45864;BME280;31579;52.354;16.974;2022-07-23T02:18:43;278.9;;;-146.1;100.0
45864;BME280;31579;52.354;16.974;2022-07-23T02:19:47;280.5;;;-146.1;100.0
45864;BME280;31579;52.354;16.974;2022-07-23T02:20:51;285.8;;;-146.1;100.0
45864;BME280;31579;52.354;16.974;2022-07-23T02:21:55;287.8;;;-146.1;100.0
45864;BME280;31579;52.354;16.974;2022-07-23T02:22:59;292.4;;;-146.1;100.0
45864;BME280;31579;52.354;16.974;2022-07-23T02:24:03;296.5;;;-146.1;100.0
45864;BME280;31579;52.354;16.974;2022-07-23T02:25:07;295.2;;;-146.1;100.0
45864;BME280;31579;52.354;16.974;2022-07-23T02:26:11;288.4;;;-146.1;100.0
45864;BME280;31579;52.354;16.974;2022-07-23T02:27:15;283.0;;;-146.1;100.0
45864;BME280;31579;52.354;16.974;2022-07-23T02:28:19;278.2;;;-146.1;100.0
45864;BME280;31579;52.354;16.974;2022-07-23T02:29:23;271.4;;;-146.1;100.0
45864;BME280;31579;52.354;16.974;2022-07-23T02:30:27;262.3;;;-146.1;100.0
45864;BME280;31579;52.354;16.974;2022-07-23T02:31:31;253.9;;;-146.1;100.0
45864;BME280;31579;52.354;16.974;2022-07-23T02:32:35;248.5;;;-146.1;100.0
45864;BME280;31579;52.354;16.974;2022-07-23T02:33:39;247.1;;;-146.1;100.0
45864;BME280;31579;52.354;16.974;2022-07-23T02:34:43;260.6;;;-146.1;100.0
45864;BME280;31579;52.354;16.974;2022-07-23T02:35:48;275.1;;;-146.1;100.0
45864;BME280;31579;52.354;16.974;2022-07-23T02:36:52;290.3;;;-146.1;100.0
45864;BME280;31579;52.354;16.974;2022-07-23T02:37:57;302.0;;;-146.1;100.0
45864;BME280;31579;52.354;16.974;2022-07-23T02:39:01;314.0;;;-146.1;100.0
45864;BME280;31579;52.354;16.974;2022-07-23T02:40:05;312.8;;;-146.1;100.0
45864;BME280;31579;52.354;16.974;2022-07-23T02:41:09;309.1;;;-146.1;100.0
45864;BME280;31579;52.354;16.974;2022-07-23T02:42:13;328.1;;;-146.1;100.0
45864;BME280;31579;52.354;16.974;2022-07-23T02:43:17;343.9;;;-146.1;100.0
45864;BME280;31579;52.354;16.974;2022-07-23T02:44:22;360.5;;;-146.1;100.0
45864;BME280;31579;52.354;16.974;2022-07-23T02:45:26;374.6;;;-146.1;100.0
45864;BME280;31579;52.354;16.974;2022-07-23T02:46:30;382.2;;;-146.1;100.0
45864;BME280;31579;52.354;16.974;2022-07-23T02:47:34;393.6;;;-146.1;100.0
45864;BME280;31579;52.354;16.974;2022-07-23T02:48:39;403.7;;;-146.1;100.0
45864;BME280;31579;52.354;16.974;2022-07-23T02:49:43;411.7;;;-146.1;100.0
45864;BME280;31579;52.354;16.974;2022-07-23T02:50:47;418.9;;;-146.1;100.0
45864;BME280;31579;52.354;16.974;2022-07-23T02:52:06;411.1;;;-146.1;100.0
45864;BME280;31579;52.354;16.974;2022-07-23T02:53:10;428.0;;;-146.1;100.0
45864;BME280;31579;52.354;16.974;2022-07-23T02:54:14;432.1;;;-146.1;100.0
45864;BME280;31579;52.354;16.974;2022-07-23T02:55:18;433.1;;;-146.1;100.0
45864;BME280;31579;52.354;16.974;2022-07-23T02:56:22;431.7;;;-146.1;100.0
45864;BME280;31579;52.354;16.974;2022-07-23T02:57:26;434.3;;;-146.1;100.0
45864;BME280;31579;52.354;16.974;2022-07-23T02:58:30;437.5;;;-146.1;100.0
45864;BME280;31579;52.354;16.974;2022-07-23T02:59:34;437.4;;;-146.1;100.0
45864;BME280;31579;52.354;16.974;2022-07-23T03:00:38;432.7;;;-146.1;100.0
45864;BME280;31579;52.354;16.974;2022-07-23T03:01:42;431.0;;;-146.1;100.0
45864;BME280;31579;52.354;16.974;2022-07-23T03:02:46;428.3;;;-146.1;100.0
45864;BME280;31579;52.354;16.974;2022-07-23T03:03:51;424.0;;;-146.1;100.0
45864;BME280;31579;52.354;16.974;2022-07-23T03:04:55;419.0;;;-146.1;100.0
45864;BME280;31579;52.354;16.974;2022-07-23T03:05:59;413.6;;;-146.1;100.0
45864;BME280;31579;52.354;16.974;2022-07-23T03:07:01;425.7;;;-146.1;100.0
45864;BME280;31579;52.354;16.974;2022-07-23T03:08:06;405.2;;;-146.1;100.0
45864;BME280;31579;52.354;16.974;2022-07-23T03:09:10;398.9;;;-146.1;100.0
45864;BME280;31579;52.354;16.974;2022-07-23T03:10:14;394.3;;;-146.1;100.0
45864;BME280;31579;52.354;16.974;2022-07-23T03:11:19;390.5;;;-146.1;100.0
45864;BME280;31579;52.354;16.974;2022-07-23T03:12:23;387.8;;;-146.1;100.0
45864;BME280;31579;52.354;16.974;2022-07-23T03:13:27;383.5;;;-146.1;100.0
45864;BME280;31579;52.354;16.974;2022-07-23T03:14:32;388.3;;;-146.1;100.0
45864;BME280;31579;52.354;16.974;2022-07-23T03:15:36;390.2;;;-146.1;100.0
45864;BME280;31579;52.354;16.974;2022-07-23T03:16:40;389.9;;;-146.1;100.0
45864;BME280;31579;52.354;16.974;2022-07-23T03:17:14;397.8;;;-146.1;100.0
45864;BME280;31579;52.354;16.974;2022-07-23T03:18:18;403.2;;;-146.1;100.0
45864;BME280;31579;52.354;16.974;2022-07-23T03:19:22;413.0;;;-146.1;100.0
45864;BME280;31579;52.354;16.974;2022-07-23T03:20:27;421.7;;;-146.1;100.0
45864;BME280;31579;52.354;16.974;2022-07-23T03:21:31;426.5;;;-146.1;100.0
45864;BME280;31579;52.354;16.974;2022-07-23T03:22:35;422.4;;;-146.1;100.0
45864;BME280;31579;52.354;16.974;2022-07-23T03:23:39;417.3;;;-146.1;100.0
45864;BME280;31579;52.354;16.974;2022-07-23T03:24:43;413.3;;;-146.1;100.0
45864;BME280;31579;52.354;16.974;2022-07-23T03:25:47;408.2;;;-146.1;100.0
45864;BME280;31579;52.354;16.974;2022-07-23T03:26:51;403.5;;;-146.1;100.0
45864;BME280;31579;52.354;16.974;2022-07-23T03:27:55;399.2;;;-146.1;100.0
45864;BME280;31579;52.354;16.974;2022-07-23T03:28:59;395.8;;;-146.1;100.0
45864;BME280;31579;52.354;16.974;2022-07-23T03:30:03;404.1;;;-146.1;100.0
45864;BME280;31579;52.354;16.974;2022-07-23T03:31:07;390.2;;;-146.1;100.0
45864;BME280;31579;52.354;16.974;2022-07-23T03:32:11;387.7;;;-146.1;100.0
45864;BME280;31579;52.354;16.974;2022-07-23T03:33:15;387.2;;;-146.1;100.0
45864;BME280;31579;52.354;16.974;2022-07-23T03:34:19;386.0;;;-146.1;100.0
45864;BME280;31579;52.354;16.974;2022-07-23T03:35:23;381.9;;;-146.1;100.0
45864;BME280;31579;52.354;16.974;2022-07-23T03:36:27;379.6;;;-146.1;100.0
45864;BME280;31579;52.354;16.974;2022-07-23T03:37:22;389.9;;;-146.1;100.0
45864;BME280;31579;52.354;16.974;2022-07-23T03:38:26;379.2;;;-146.1;100.0
45864;BME280;31579;52.354;16.974;2022-07-23T03:39:30;385.0;;;-146.1;100.0
45864;BME280;31579;52.354;16.974;2022-07-23T03:40:35;385.3;;;-146.1;100.0
45864;BME280;31579;52.354;16.974;2022-07-23T03:41:39;384.2;;;-146.1;100.0
45864;BME280;31579;52.354;16.974;2022-07-23T03:42:43;392.9;;;-146.1;100.0
45864;BME280;31579;52.354;16.974;2022-07-23T03:43:47;395.2;;;-146.1;100.0
45864;BME280;31579;52.354;16.974;2022-07-23T03:44:51;400.8;;;-146.1;100.0
45864;BME280;31579;52.354;16.974;2022-07-23T03:45:55;406.6;;;-146.1;100.0
45864;BME280;31579;52.354;16.974;2022-07-23T03:46:59;411.5;;;-146.1;100.0
45864;BME280;31579;52.354;16.974;2022-07-23T03:48:03;413.6;;;-146.1;100.0
45864;BME280;31579;52.354;16.974;2022-07-23T03:49:07;414.4;;;-146.1;100.0
45864;BME280;31579;52.354;16.974;2022-07-23T03:50:11;411.5;;;-146.1;100.0
45864;BME280;31579;52.354;16.974;2022-07-23T03:51:15;404.8;;;-146.1;100.0
45864;BME280;31579;52.354;16.974;2022-07-23T03:52:18;414.5;;;-146.1;100.0
45864;BME280;31579;52.354;16.974;2022-07-23T03:53:22;392.4;;;-146.1;100.0
45864;BME280;31579;52.354;16.974;2022-07-23T03:54:26;385.9;;;-146.1;100.0
45864;BME280;31579;52.354;16.974;2022-07-23T03:55:30;382.5;;;-146.1;100.0
45864;BME280;31579;52.354;16.974;2022-07-23T03:56:34;378.9;;;-146.1;100.0
45864;BME280;31579;52.354;16.974;2022-07-23T03:57:38;381.6;;;-146.1;100.0
45864;BME280;31579;52.354;16.974;2022-07-23T03:58:42;377.9;;;-146.1;100.0
45864;BME280;31579;52.354;16.974;2022-07-23T03:59:46;375.4;;;-146.1;100.0
45864;BME280;31579;52.354;16.974;2022-07-23T04:00:50;378.1;;;-146.1;100.0
45864;BME280;31579;52.354;16.974;2022-07-23T04:01:54;375.7;;;-146.1;100.0
45864;BME280;31579;52.354;16.974;2022-07-23T04:02:58;371.1;;;-146.1;100.0
45864;BME280;31579;52.354;16.974;2022-07-23T04:04:01;385.3;;;-146.1;100.0
45864;BME280;31579;52.354;16.974;2022-07-23T04:05:06;365.0;;;-146.1;100.0
45864;BME280;31579;52.354;16.974;2022-07-23T04:06:09;370.8;;;-146.1;100.0
45864;BME280;31579;52.354;16.974;2022-07-23T04:07:13;369.6;;;-146.1;100.0
45864;BME280;31579;52.354;16.974;2022-07-23T04:08:18;346.4;;;-146.1;100.0
45864;BME280;31579;52.354;16.974;2022-07-23T04:09:22;358.1;;;-146.1;100.0
45864;BME280;31579;52.354;16.974;2022-07-23T04:10:26;360.9;;;-146.1;100.0
45864;BME280;31579;52.354;16.974;2022-07-23T04:11:30;369.2;;;-146.1;100.0
45864;BME280;31579;52.354;16.974;2022-07-23T04:12:35;363.7;;;-146.1;100.0
45864;BME280;31579;52.354;16.974;2022-07-23T04:13:39;353.9;;;-146.1;100.0
45864;BME280;31579;52.354;16.974;2022-07-23T04:14:43;348.7;;;-146.1;100.0
45864;BME280;31579;52.354;16.974;2022-07-23T04:15:47;350.2;;;-146.1;100.0
45864;BME280;31579;52.354;16.974;2022-07-23T04:16:52;343.0;;;-146.1;100.0
45864;BME280;31579;52.354;16.974;2022-07-23T04:17:56;341.0;;;-146.1;100.0
45864;BME280;31579;52.354;16.974;2022-07-23T04:19:00;344.3;;;-146.1;100.0
45864;BME280;31579;52.354;16.974;2022-07-23T04:20:06;346.5;;;-146.1;100.0
45864;BME280;31579;52.354;16.974;2022-07-23T04:21:09;343.5;;;-146.1;100.0
45864;BME280;31579;52.354;16.974;2022-07-23T04:22:13;340.6;;;-146.1;100.0
45864;BME280;31579;52.354;16.974;2022-07-23T04:23:18;322.8;;;-146.1;100.0
45864;BME280;31579;52.354;16.974;2022-07-23T04:24:23;351.4;;;-146.1;100.0
45864;BME280;31579;52.354;16.974;2022-07-23T04:25:25;387.5;;;-146.1;100.0
45864;BME280;31579;52.354;16.974;2022-07-23T04:26:30;376.1;;;-146.1;100.0
45864;BME280;31579;52.354;16.974;2022-07-23T04:27:34;383.1;;;-146.1;100.0
45864;BME280;31579;52.354;16.974;2022-07-23T04:28:38;391.4;;;-146.1;100.0
45864;BME280;31579;52.354;16.974;2022-07-23T04:29:43;398.4;;;-146.1;100.0
45864;BME280;31579;52.354;16.974;2022-07-23T04:30:47;405.6;;;-146.1;100.0
45864;BME280;31579;52.354;16.974;2022-07-23T04:31:51;408.8;;;-146.1;100.0
45864;BME280;31579;52.354;16.974;2022-07-23T04:32:56;414.1;;;-146.1;100.0
45864;BME280;31579;52.354;16.974;2022-07-23T04:35:12;418.9;;;-146.1;100.0
45864;BME280;31579;52.354;16.974;2022-07-23T04:36:17;418.8;;;-146.1;100.0
45864;BME280;31579;52.354;16.974;2022-07-23T04:37:21;420.8;;;-146.1;100.0
45864;BME280;31579;52.354;16.974;2022-07-23T04:38:25;425.1;;;-146.1;100.0
45864;BME280;31579;52.354;16.974;2022-07-23T04:39:30;430.0;;;-146.1;100.0
45864;BME280;31579;52.354;16.974;2022-07-23T04:40:34;433.7;;;-146.1;100.0
45864;BME280;31579;52.354;16.974;2022-07-23T04:41:38;436.4;;;-146.1;100.0
45864;BME280;31579;52.354;16.974;2022-07-23T04:42:43;436.1;;;-146.1;100.0
45864;BME280;31579;52.354;16.974;2022-07-23T04:43:47;436.2;;;-146.1;100.0
45864;BME280;31579;52.354;16.974;2022-07-23T04:44:51;436.7;;;-146.1;100.0
45864;BME280;31579;52.354;16.974;2022-07-23T04:45:55;433.7;;;-146.1;100.0
45864;BME280;31579;52.354;16.974;2022-07-23T04:46:59;433.5;;;-146.1;100.0
45864;BME280;31579;52.354;16.974;2022-07-23T04:48:04;433.2;;;-146.1;100.0
45864;BME280;31579;52.354;16.974;2022-07-23T04:49:07;433.5;;;-146.1;100.0
45864;BME280;31579;52.354;16.974;2022-07-23T04:50:12;434.1;;;-146.1;100.0
45864;BME280;31579;52.354;16.974;2022-07-23T04:51:16;434.6;;;-146.1;100.0
45864;BME280;31579;52.354;16.974;2022-07-23T04:52:20;434.1;;;-146.1;100.0
45864;BME280;31579;52.354;16.974;2022-07-23T05:10:01;277.1;;;-146.1;100.0
45864;BME280;31579;52.354;16.974;2022-07-23T05:11:05;255.4;;;-146.1;100.0
45864;BME280;31579;52.354;16.974;2022-07-23T05:12:09;217.8;;;-146.1;100.0
45864;BME280;31579;52.354;16.974;2022-07-23T05:13:14;174.5;;;-146.1;100.0
45864;BME280;31579;52.354;16.974;2022-07-23T05:14:17;142.7;;;-146.1;100.0
45864;BME280;31579;52.354;16.974;2022-07-23T05:15:21;108.1;;;-146.1;100.0
45864;BME280;31579;52.354;16.974;2022-07-23T05:16:25;74.9;;;-146.1;100.0
45864;BME280;31579;52.354;16.974;2022-07-23T05:17:29;39.1;;;-146.1;100.0
45864;BME280;31579;52.354;16.974;2022-07-23T05:18:33;13.7;;;-146.1;100.0
45864;BME280;31579;52.354;16.974;2022-07-23T05:19:38;12.6;;;-146.1;100.0
45864;BME280;31579;52.354;16.974;2022-07-23T05:20:42;-43.6;;;-146.1;100.0
45864;BME280;31579;52.354;16.974;2022-07-23T05:21:46;-92.2;;;-146.1;100.0
45864;BME280;31579;52.354;16.974;2022-07-23T05:22:50;-96.1;;;-146.1;100.0
45864;BME280;31579;52.354;16.974;2022-07-23T05:23:54;-107.7;;;-146.1;100.0
45864;BME280;31579;52.354;16.974;2022-07-23T05:24:58;-120.6;;;-146.1;100.0
45864;BME280;31579;52.354;16.974;2022-07-23T05:26:00;-121.4;;;-146.1;100.0
45864;BME280;31579;52.354;16.974;2022-07-23T05:27:03;-119.9;;;-146.1;100.0
45864;BME280;31579;52.354;16.974;2022-07-23T05:28:07;-108.2;;;-146.1;100.0
45864;BME280;31579;52.354;16.974;2022-07-23T05:29:11;-104.8;;;-146.1;100.0
45864;BME280;31579;52.354;16.974;2022-07-23T05:30:15;-94.0;;;-146.1;100.0
45864;BME280;31579;52.354;16.974;2022-07-23T05:31:19;-76.6;;;-146.1;100.0
45864;BME280;31579;52.354;16.974;2022-07-23T05:32:23;-75.3;;;-146.1;100.0
45864;BME280;31579;52.354;16.974;2022-07-23T05:33:27;-72.5;;;-146.1;100.0
45864;BME280;31579;52.354;16.974;2022-07-23T05:34:32;-58.2;;;-146.1;100.0
45864;BME280;31579;52.354;16.974;2022-07-23T05:35:36;-27.8;;;-146.1;100.0
45864;BME280;31579;52.354;16.974;2022-07-23T05:36:40;-18.8;;;-146.1;100.0
45864;BME280;31579;52.354;16.974;2022-07-23T05:37:44;11.1;;;-146.1;100.0
45864;BME280;31579;52.354;16.974;2022-07-23T05:38:48;-12.5;;;-146.1;100.0
45864;BME280;31579;52.354;16.974;2022-07-23T05:49:16;1.6;;;-146.1;100.0
45864;BME280;31579;52.354;16.974;2022-07-23T05:50:20;1.7;;;-146.1;100.0
45864;BME280;31579;52.354;16.974;2022-07-23T05:51:24;-7.9;;;-146.1;100.0
45864;BME280;31579;52.354;16.974;2022-07-23T05:52:29;10.2;;;-146.1;100.0
45864;BME280;31579;52.354;16.974;2022-07-23T05:53:33;59.1;;;-146.1;100.0
45864;BME280;31579;52.354;16.974;2022-07-23T05:54:37;55.0;;;-146.1;100.0
45864;BME280;31579;52.354;16.974;2022-07-23T05:55:41;41.3;;;-146.1;100.0
45864;BME280;31579;52.354;16.974;2022-07-23T05:56:45;67.2;;;-146.1;100.0
45864;BME280;31579;52.354;16.974;2022-07-23T05:57:49;105.6;;;-146.1;100.0
45864;BME280;31579;52.354;16.974;2022-07-23T05:59:23;80.3;;;-146.1;100.0
45864;BME280;31579;52.354;16.974;2022-07-23T06:00:27;133.6;;;-146.1;100.0
45864;BME280;31579;52.354;16.974;2022-07-23T06:01:31;156.4;;;-146.1;100.0
45864;BME280;31579;52.354;16.974;2022-07-23T06:02:35;207.3;;;-146.1;100.0
45864;BME280;31579;52.354;16.974;2022-07-23T06:03:39;263.4;;;-146.1;100.0
45864;BME280;31579;52.354;16.974;2022-07-23T06:04:43;278.1;;;-146.1;100.0
45864;BME280;31579;52.354;16.974;2022-07-23T06:05:47;464.6;;;-146.1;100.0
45864;BME280;31579;52.354;16.974;2022-07-23T06:06:51;556.2;;;-146.1;100.0
45864;BME280;31579;52.354;16.974;2022-07-23T06:07:55;415.7;;;-146.1;100.0
45864;BME280;31579;52.354;16.974;2022-07-23T06:08:59;333.1;;;-146.1;100.0
45864;BME280;31579;52.354;16.974;2022-07-23T06:10:04;387.7;;;-146.1;100.0
45864;BME280;31579;52.354;16.974;2022-07-23T06:11:07;420.8;;;-146.1;100.0
45864;BME280;31579;52.354;16.974;2022-07-23T06:12:11;421.1;;;-146.1;100.0
45864;BME280;31579;52.354;16.974;2022-07-23T06:13:17;467.3;;;-146.1;100.0